KLM188 TNCC-EHAM
Flight info
| Callsign | KLM188 |
|---|---|
| Flight time | N/A |
| Altitude | 33000 |
| Route | SCAPA1K SCAPA L335 OBIKE/M084F330 DCT 20N060W 26N050W 31N040W/M084F350 36N030W 41N020W DCT PASAS/M084F370 DCT SEPAL UN470 LAPEX/N0477F370 DCT OZNOH/N0480F360 DCT ROGPU DCT TADUP DCT PODEM UN873 BAZOS DCT BELDI DCT VEKIN DCT ADUTO N873 FERDI Y18 DENUT |
| Aircraft | B77W/H-SDE1E2E3FGHIJ2J3J4J5M1RWXY/LB1D1 |
Departure
| Time | 2026-04-22 22:34 |
|---|---|
| Airport | Hato International Airport (TNCC) |
Arrival
| Time | N/A |
|---|---|
| Airport | Amsterdam Airport Schiphol (EHAM) |
| Time | Latitude | Longitude | Altitude | Speed | Heading |
|---|---|---|---|---|---|
| 2026-04-22 21:54 | 12.18626 | -68.95988 | 61 ft | 0 kts | 192° |
| 2026-04-22 22:17 | 12.18626 | -68.95987 | 61 ft | 0 kts | 192° |
| 2026-04-22 22:25 | 12.18640 | -68.95985 | 60 ft | 2 kts | 192° |
| 2026-04-22 22:25 | 12.18654 | -68.95981 | 58 ft | 2 kts | 195° |
| 2026-04-22 22:25 | 12.18668 | -68.95976 | 58 ft | 2 kts | 213° |
| 2026-04-22 22:25 | 12.18680 | -68.95966 | 57 ft | 2 kts | 226° |
| 2026-04-22 22:26 | 12.18689 | -68.95955 | 56 ft | 2 kts | 239° |
| 2026-04-22 22:26 | 12.18696 | -68.95941 | 56 ft | 2 kts | 252° |
| 2026-04-22 22:26 | 12.18699 | -68.95926 | 56 ft | 2 kts | 265° |
| 2026-04-22 22:26 | 12.18699 | -68.95911 | 55 ft | 2 kts | 278° |
| 2026-04-22 22:27 | 12.18698 | -68.95904 | 55 ft | 1 kts | 283° |
| 2026-04-22 22:27 | 12.18698 | -68.95903 | 55 ft | 0 kts | 283° |
| 2026-04-22 22:29 | 12.18698 | -68.95905 | 55 ft | 1 kts | 283° |
| 2026-04-22 22:29 | 12.18702 | -68.95922 | 55 ft | 3 kts | 282° |
| 2026-04-22 22:29 | 12.18712 | -68.95968 | 56 ft | 9 kts | 281° |
| 2026-04-22 22:30 | 12.18730 | -68.96060 | 56 ft | 15 kts | 282° |
| 2026-04-22 22:30 | 12.18757 | -68.96182 | 56 ft | 17 kts | 282° |
| 2026-04-22 22:30 | 12.18781 | -68.96296 | 57 ft | 15 kts | 282° |
| 2026-04-22 22:30 | 12.18802 | -68.96399 | 57 ft | 16 kts | 282° |
| 2026-04-22 22:31 | 12.18831 | -68.96538 | 56 ft | 23 kts | 282° |
| 2026-04-22 22:31 | 12.18870 | -68.96719 | 56 ft | 25 kts | 282° |
| 2026-04-22 22:31 | 12.18906 | -68.96896 | 55 ft | 25 kts | 282° |
| 2026-04-22 22:31 | 12.18944 | -68.97077 | 54 ft | 26 kts | 281° |
| 2026-04-22 22:32 | 12.18980 | -68.97253 | 55 ft | 24 kts | 282° |
| 2026-04-22 22:32 | 12.19016 | -68.97421 | 54 ft | 24 kts | 281° |
| 2026-04-22 22:32 | 12.19056 | -68.97578 | 54 ft | 19 kts | 311° |
| 2026-04-22 22:32 | 12.19184 | -68.97568 | 50 ft | 18 kts | 32° |
| 2026-04-22 22:33 | 12.19202 | -68.97440 | 48 ft | 23 kts | 101° |
| 2026-04-22 22:33 | 12.19142 | -68.97157 | 47 ft | 68 kts | 102° |
| 2026-04-22 22:33 | 12.19000 | -68.96483 | 49 ft | 125 kts | 102° |
| 2026-04-22 22:33 | 12.18780 | -68.95435 | 47 ft | 175 kts | 102° |
| 2026-04-22 22:34 | 12.18502 | -68.94134 | 370 ft | 189 kts | 102° |
| 2026-04-22 22:34 | 12.18209 | -68.92801 | 905 ft | 198 kts | 101° |
| 2026-04-22 22:34 | 12.17920 | -68.91436 | 1551 ft | 202 kts | 100° |
| 2026-04-22 22:34 | 12.17620 | -68.89977 | 1901 ft | 220 kts | 101° |
| 2026-04-22 22:35 | 12.17475 | -68.88361 | 2183 ft | 240 kts | 82° |
| 2026-04-22 22:35 | 12.18057 | -68.86723 | 2663 ft | 252 kts | 56° |
| 2026-04-22 22:35 | 12.19327 | -68.85525 | 3429 ft | 256 kts | 30° |
| 2026-04-22 22:35 | 12.21004 | -68.84875 | 4129 ft | 262 kts | 19° |
| 2026-04-22 22:36 | 12.22760 | -68.84351 | 4880 ft | 265 kts | 18° |
| 2026-04-22 22:36 | 12.24550 | -68.83824 | 5600 ft | 270 kts | 17° |
| 2026-04-22 22:36 | 12.26379 | -68.83285 | 6275 ft | 275 kts | 17° |
| 2026-04-22 22:36 | 12.28228 | -68.82742 | 6977 ft | 277 kts | 17° |
| 2026-04-22 22:37 | 12.30068 | -68.82201 | 7708 ft | 278 kts | 16° |
| 2026-04-22 22:37 | 12.31936 | -68.81653 | 8380 ft | 281 kts | 16° |
| 2026-04-22 22:37 | 12.33835 | -68.81095 | 9052 ft | 284 kts | 16° |
| 2026-04-22 22:37 | 12.35736 | -68.80537 | 9753 ft | 286 kts | 15° |
| 2026-04-22 22:38 | 12.37668 | -68.79971 | 10326 ft | 294 kts | 15° |
| 2026-04-22 22:38 | 12.39686 | -68.79379 | 10651 ft | 310 kts | 15° |
| 2026-04-22 22:38 | 12.41833 | -68.78751 | 10958 ft | 327 kts | 16° |
| 2026-04-22 22:38 | 12.44067 | -68.78097 | 11277 ft | 344 kts | 16° |
| 2026-04-22 22:39 | 12.46471 | -68.77393 | 11631 ft | 360 kts | 16° |
| 2026-04-22 22:39 | 12.48921 | -68.76678 | 11985 ft | 374 kts | 16° |
| 2026-04-22 22:39 | 12.51515 | -68.75921 | 12381 ft | 387 kts | 16° |
| 2026-04-22 22:39 | 12.54115 | -68.75163 | 12999 ft | 392 kts | 16° |
| 2026-04-22 22:40 | 12.56658 | -68.74422 | 13708 ft | 393 kts | 16° |
| 2026-04-22 22:40 | 12.59311 | -68.73650 | 14326 ft | 398 kts | 16° |
| 2026-04-22 22:40 | 12.62043 | -68.72858 | 14852 ft | 404 kts | 15° |
| 2026-04-22 22:40 | 12.64754 | -68.72076 | 15461 ft | 408 kts | 15° |
| 2026-04-22 22:41 | 12.67512 | -68.71291 | 16032 ft | 412 kts | 17° |
| 2026-04-22 22:41 | 12.70223 | -68.70280 | 16579 ft | 417 kts | 21° |
| 2026-04-22 22:41 | 12.72957 | -68.69199 | 17092 ft | 421 kts | 20° |
| 2026-04-22 22:41 | 12.75685 | -68.68130 | 17629 ft | 425 kts | 20° |
| 2026-04-22 22:42 | 12.78509 | -68.67036 | 18177 ft | 429 kts | 20° |
| 2026-04-22 22:42 | 12.81300 | -68.65963 | 18712 ft | 432 kts | 20° |
| 2026-04-22 22:42 | 12.84146 | -68.64873 | 19228 ft | 436 kts | 20° |
| 2026-04-22 22:42 | 12.86988 | -68.63788 | 19736 ft | 439 kts | 20° |
| 2026-04-22 22:43 | 12.89860 | -68.62694 | 20223 ft | 443 kts | 20° |
| 2026-04-22 22:43 | 12.92791 | -68.61579 | 20713 ft | 446 kts | 19° |
| 2026-04-22 22:43 | 12.95742 | -68.60458 | 21193 ft | 450 kts | 19° |
| 2026-04-22 22:43 | 12.98704 | -68.59333 | 21661 ft | 453 kts | 19° |
| 2026-04-22 22:44 | 13.01677 | -68.58204 | 22121 ft | 456 kts | 19° |
| 2026-04-22 22:44 | 13.04709 | -68.57053 | 22588 ft | 460 kts | 19° |
| 2026-04-22 22:44 | 13.07732 | -68.55907 | 23020 ft | 463 kts | 19° |
| 2026-04-22 22:44 | 13.10815 | -68.54736 | 23456 ft | 467 kts | 19° |
| 2026-04-22 22:45 | 13.13856 | -68.53581 | 23872 ft | 470 kts | 19° |
| 2026-04-22 22:45 | 13.16970 | -68.52399 | 24298 ft | 473 kts | 19° |
| 2026-04-22 22:45 | 13.20113 | -68.51206 | 24722 ft | 477 kts | 19° |
| 2026-04-22 22:45 | 13.23278 | -68.50003 | 25125 ft | 480 kts | 19° |
| 2026-04-22 22:46 | 13.26405 | -68.48815 | 25514 ft | 484 kts | 18° |
| 2026-04-22 22:46 | 13.29603 | -68.47600 | 25929 ft | 487 kts | 18° |
| 2026-04-22 22:46 | 13.32779 | -68.46392 | 26347 ft | 490 kts | 18° |
| 2026-04-22 22:46 | 13.36009 | -68.45164 | 26729 ft | 493 kts | 18° |
| 2026-04-22 22:47 | 13.39222 | -68.43942 | 27102 ft | 497 kts | 18° |
| 2026-04-22 22:47 | 13.42481 | -68.42703 | 27481 ft | 500 kts | 18° |
| 2026-04-22 22:47 | 13.45769 | -68.41451 | 27869 ft | 503 kts | 18° |
| 2026-04-22 22:47 | 13.49049 | -68.40202 | 28226 ft | 506 kts | 18° |
| 2026-04-22 22:48 | 13.52392 | -68.38930 | 28578 ft | 510 kts | 18° |
| 2026-04-22 22:48 | 13.55741 | -68.37654 | 28927 ft | 513 kts | 18° |
| 2026-04-22 22:48 | 13.59115 | -68.36369 | 29283 ft | 516 kts | 18° |
| 2026-04-22 22:48 | 13.62487 | -68.35083 | 29786 ft | 516 kts | 18° |
| 2026-04-22 22:49 | 13.65830 | -68.33808 | 30325 ft | 515 kts | 18° |
| 2026-04-22 22:49 | 13.69185 | -68.32529 | 30807 ft | 515 kts | 18° |
| 2026-04-22 22:49 | 13.72555 | -68.31243 | 31280 ft | 515 kts | 18° |
| 2026-04-22 22:49 | 13.75938 | -68.29952 | 31711 ft | 515 kts | 19° |
| 2026-04-22 22:50 | 13.79285 | -68.28674 | 32161 ft | 515 kts | 19° |
| 2026-04-22 22:50 | 13.82696 | -68.27373 | 32607 ft | 514 kts | 19° |
| 2026-04-22 22:50 | 13.86033 | -68.26098 | 32926 ft | 516 kts | 19° |
| 2026-04-22 22:51 | 13.92815 | -68.23507 | 32928 ft | 514 kts | 19° |
| 2026-04-22 22:51 | 13.99532 | -68.20940 | 32931 ft | 514 kts | 19° |
| 2026-04-22 22:52 | 14.06260 | -68.18366 | 32937 ft | 512 kts | 19° |
| 2026-04-22 22:52 | 14.13009 | -68.15783 | 32945 ft | 512 kts | 19° |
| 2026-04-22 22:53 | 14.19742 | -68.13203 | 32945 ft | 515 kts | 19° |
| 2026-04-22 22:53 | 14.26462 | -68.10628 | 32948 ft | 514 kts | 18° |
| 2026-04-22 22:54 | 14.33210 | -68.08040 | 32948 ft | 515 kts | 18° |
| 2026-04-22 22:54 | 14.39990 | -68.05437 | 32949 ft | 514 kts | 18° |
| 2026-04-22 22:55 | 14.46735 | -68.02846 | 32950 ft | 516 kts | 18° |
| 2026-04-22 22:55 | 14.56904 | -67.98938 | 32951 ft | 516 kts | 18° |
| 2026-04-22 22:56 | 14.63686 | -67.96330 | 32951 ft | 516 kts | 18° |
| 2026-04-22 22:56 | 14.70453 | -67.93724 | 32952 ft | 517 kts | 18° |
| 2026-04-22 22:57 | 14.77260 | -67.91103 | 32952 ft | 517 kts | 18° |
| 2026-04-22 22:57 | 14.84070 | -67.88477 | 32953 ft | 518 kts | 18° |
| 2026-04-22 22:58 | 14.90839 | -67.85867 | 32953 ft | 517 kts | 18° |
| 2026-04-22 22:58 | 14.97615 | -67.83252 | 32955 ft | 519 kts | 18° |
| 2026-04-22 22:59 | 15.04386 | -67.80636 | 32955 ft | 517 kts | 18° |
| 2026-04-22 22:59 | 15.11193 | -67.78006 | 32958 ft | 519 kts | 18° |